Time;durP1;ratioP1;P1;durP2;ratioP2;P2;SDS_P1;SDS_P2;PMS_P1;PMS_P2;Temp;Humidity;BMP_temperature;BMP_pressure;BME280_temperature;BME280_humidity;BME280_pressure;Samples;Min_cycle;Max_cycle;Signal;HPM_P1;HPM_P2
2023/12/13 00:00:20;;;;;;;5.63;3.20;;;;;21.80;98634.00;;;;2071074;28;20682;-69
2023/12/13 00:01:20;;;;;;;3.90;2.60;;;;;21.80;98624.00;;;;2079305;28;20232;-69
2023/12/13 00:02:21;;;;;;;3.93;2.50;;;;;21.70;98633.00;;;;2080595;28;20226;-69
2023/12/13 00:03:21;;;;;;;5.80;3.50;;;;;21.70;98626.00;;;;2080531;28;20248;-69
2023/12/13 00:04:21;;;;;;;4.43;2.53;;;;;21.70;98626.00;;;;2079836;28;20222;-69
2023/12/13 00:05:22;;;;;;;4.03;2.40;;;;;21.70;98624.00;;;;2074477;28;20220;-69
2023/12/13 00:06:22;;;;;;;4.30;2.70;;;;;21.70;98623.00;;;;2079418;28;20221;-69
2023/12/13 00:07:22;;;;;;;4.53;2.27;;;;;21.70;98621.00;;;;2079135;28;20260;-69
2023/12/13 00:08:23;;;;;;;3.50;2.70;;;;;21.70;98619.00;;;;2080278;28;20218;-69
2023/12/13 00:09:23;;;;;;;3.50;2.60;;;;;21.70;98618.00;;;;2079066;28;20225;-69
2023/12/13 00:10:23;;;;;;;3.80;2.60;;;;;21.70;98625.00;;;;2070816;28;20233;-69
2023/12/13 00:11:24;;;;;;;4.27;2.50;;;;;21.70;98619.00;;;;2079436;28;20225;-69
2023/12/13 00:12:24;;;;;;;5.10;2.60;;;;;21.70;98619.00;;;;2083040;28;20353;-69
2023/12/13 00:13:26;;;;;;;3.13;2.17;;;;;21.70;98616.00;;;;2078355;28;20214;-69
2023/12/13 00:14:26;;;;;;;5.85;2.70;;;;;21.70;98618.00;;;;2078899;28;20209;-69
2023/12/13 00:15:26;;;;;;;3.77;2.40;;;;;21.70;98615.00;;;;2070717;28;20217;-69
2023/12/13 00:16:27;;;;;;;3.13;2.10;;;;;21.70;98623.00;;;;2080015;28;20234;-69
2023/12/13 00:17:28;;;;;;;3.53;2.33;;;;;21.70;98625.00;;;;2082985;28;20256;-69
2023/12/13 00:18:28;;;;;;;6.83;2.97;;;;;21.70;98622.00;;;;2079190;28;20218;-69
2023/12/13 00:19:28;;;;;;;3.40;2.33;;;;;21.60;98626.00;;;;2080404;28;20462;-69
2023/12/13 00:20:29;;;;;;;4.27;2.37;;;;;21.70;98618.00;;;;2070784;28;20217;-69
2023/12/13 00:21:29;;;;;;;3.03;2.10;;;;;21.70;98623.00;;;;2079928;28;20244;-69
2023/12/13 00:22:29;;;;;;;6.50;2.67;;;;;21.60;98621.00;;;;2079710;28;20213;-69
2023/12/13 00:23:30;;;;;;;3.00;2.07;;;;;21.70;98630.00;;;;2070760;28;20280;-69
2023/12/13 00:24:30;;;;;;;3.80;2.07;;;;;21.70;98622.00;;;;2071287;28;20222;-69
2023/12/13 00:25:30;;;;;;;3.53;2.03;;;;;21.60;98623.00;;;;2068678;28;20221;-69
2023/12/13 00:26:31;;;;;;;3.70;2.27;;;;;21.60;98623.00;;;;2063102;28;20215;-69
2023/12/13 00:27:31;;;;;;;4.20;2.50;;;;;21.60;98627.00;;;;2071217;28;20215;-69
2023/12/13 00:28:33;;;;;;;3.87;2.20;;;;;21.60;98623.00;;;;2077415;28;20220;-69
2023/12/13 00:29:33;;;;;;;3.55;2.00;;;;;21.60;98624.00;;;;2080300;28;20301;-69
2023/12/13 00:30:34;;;;;;;4.90;2.23;;;;;21.60;98626.00;;;;2070365;28;20274;-69
2023/12/13 00:31:34;;;;;;;2.60;1.97;;;;;21.60;98628.00;;;;2080288;28;20255;-69
2023/12/13 00:32:35;;;;;;;4.20;2.00;;;;;21.60;98535.00;;;;2078398;28;20283;-69
2023/12/13 00:33:35;;;;;;;3.70;1.90;;;;;21.60;98623.00;;;;2079738;28;20213;-69
2023/12/13 00:34:36;;;;;;;3.93;2.17;;;;;21.60;98625.00;;;;2078527;28;20268;-69
2023/12/13 00:35:36;;;;;;;3.23;1.80;;;;;21.60;98626.00;;;;2070913;28;20216;-69
2023/12/13 00:36:36;;;;;;;3.40;2.13;;;;;21.60;98621.00;;;;2081749;28;20652;-69
2023/12/13 00:37:37;;;;;;;2.93;1.80;;;;;21.60;98625.00;;;;2079272;28;20968;-69
2023/12/13 00:38:37;;;;;;;4.80;2.10;;;;;21.60;98631.00;;;;2079263;28;20235;-69
2023/12/13 00:39:37;;;;;;;3.20;2.10;;;;;21.60;98623.00;;;;2079691;28;20310;-69
2023/12/13 00:40:38;;;;;;;4.87;2.40;;;;;21.60;98622.00;;;;2070281;28;20217;-69
2023/12/13 00:41:38;;;;;;;3.87;2.03;;;;;21.60;98627.00;;;;2079613;28;20217;-69
2023/12/13 00:42:38;;;;;;;3.03;2.03;;;;;21.60;98626.00;;;;2081067;28;20225;-69
2023/12/13 00:43:39;;;;;;;4.70;1.50;;;;;21.60;98621.00;;;;2082229;28;20220;-69
2023/12/13 00:44:39;;;;;;;3.17;1.80;;;;;21.50;98619.00;;;;2079311;28;20213;-69
2023/12/13 00:45:40;;;;;;;2.50;2.00;;;;;21.60;98623.00;;;;2070593;28;20217;-69
2023/12/13 00:46:40;;;;;;;3.27;2.00;;;;;21.50;98614.00;;;;2079783;28;20228;-69
2023/12/13 00:47:41;;;;;;;3.53;2.70;;;;;21.50;98616.00;;;;2080633;28;20751;-69
2023/12/13 00:48:42;;;;;;;3.13;1.80;;;;;21.50;98616.00;;;;2080623;28;20217;-69
2023/12/13 00:49:42;;;;;;;4.10;1.97;;;;;21.50;98622.00;;;;2079893;28;20858;-69
2023/12/13 00:50:42;;;;;;;4.60;1.90;;;;;21.50;98627.00;;;;2072189;28;20262;-69
2023/12/13 00:51:43;;;;;;;3.10;1.50;;;;;21.50;98625.00;;;;2079784;28;20221;-69
2023/12/13 00:52:43;;;;;;;3.80;1.60;;;;;21.50;98629.00;;;;2077729;28;20705;-69
2023/12/13 00:53:43;;;;;;;3.40;1.80;;;;;21.50;98629.00;;;;2079663;28;20755;-69
2023/12/13 00:54:44;;;;;;;4.57;1.57;;;;;21.50;98626.00;;;;2079467;28;20221;-69
2023/12/13 00:55:44;;;;;;;2.53;1.63;;;;;21.50;98624.00;;;;2070235;28;20224;-69
2023/12/13 00:56:44;;;;;;;3.50;2.00;;;;;21.50;98629.00;;;;2079460;28;20725;-69
2023/12/13 00:57:45;;;;;;;5.83;2.00;;;;;21.50;98632.00;;;;2079323;28;20323;-69
2023/12/13 00:58:47;;;;;;;2.97;1.50;;;;;21.50;98633.00;;;;2078162;28;20221;-69
2023/12/13 00:59:47;;;;;;;2.90;1.80;;;;;21.50;98625.00;;;;2078145;28;20229;-69
2023/12/13 01:00:48;;;;;;;3.50;1.70;;;;;21.50;98629.00;;;;2074020;28;20646;-69
2023/12/13 01:01:48;;;;;;;3.23;1.50;;;;;21.50;98625.00;;;;2079818;28;20815;-69
2023/12/13 01:02:48;;;;;;;3.23;1.60;;;;;21.50;98626.00;;;;2079754;28;20689;-69
2023/12/13 01:03:49;;;;;;;2.90;1.60;;;;;21.50;98626.00;;;;2079932;28;20240;-69
2023/12/13 01:04:49;;;;;;;2.20;1.70;;;;;21.50;98630.00;;;;2068537;28;20751;-69
2023/12/13 01:05:49;;;;;;;2.40;1.60;;;;;21.50;98629.00;;;;2079294;28;20671;-69
2023/12/13 01:06:50;;;;;;;3.10;1.70;;;;;21.50;98629.00;;;;2077971;28;20217;-69
2023/12/13 01:07:50;;;;;;;2.30;1.40;;;;;21.50;98634.00;;;;2075680;28;20221;-69
2023/12/13 01:08:50;;;;;;;2.80;1.60;;;;;21.50;98627.00;;;;2079013;28;20225;-69
2023/12/13 01:09:51;;;;;;;2.53;1.40;;;;;21.50;98629.00;;;;2073526;28;20212;-69
2023/12/13 01:10:52;;;;;;;1.90;1.37;;;;;21.50;98631.00;;;;2078896;28;20220;-69
2023/12/13 01:11:52;;;;;;;1.67;1.10;;;;;21.50;98639.00;;;;2079362;28;20220;-69
2023/12/13 01:12:53;;;;;;;2.47;1.60;;;;;21.50;98628.00;;;;2079738;28;20253;-69
2023/12/13 01:13:53;;;;;;;3.50;1.20;;;;;21.50;98633.00;;;;2079173;28;20214;-69
2023/12/13 01:14:53;;;;;;;2.33;1.20;;;;;21.50;98629.00;;;;2069443;28;20236;-69
2023/12/13 01:15:54;;;;;;;2.07;1.13;;;;;21.50;98628.00;;;;2074414;28;20210;-69
2023/12/13 01:16:54;;;;;;;2.50;1.37;;;;;21.40;98628.00;;;;2079842;28;20212;-69
2023/12/13 01:17:54;;;;;;;1.90;1.10;;;;;21.40;98635.00;;;;2079682;28;20244;-69
2023/12/13 01:18:55;;;;;;;2.10;1.30;;;;;21.40;98628.00;;;;2077671;28;20213;-69
2023/12/13 01:19:55;;;;;;;1.93;1.27;;;;;21.40;98634.00;;;;2070391;28;20271;-69
2023/12/13 01:20:56;;;;;;;3.30;1.50;;;;;21.40;98623.00;;;;2078654;28;20213;-69
2023/12/13 01:21:56;;;;;;;2.20;0.97;;;;;21.40;98621.00;;;;2078839;28;20625;-69
2023/12/13 01:22:57;;;;;;;2.93;1.00;;;;;21.40;98627.00;;;;2079000;28;20240;-69
2023/12/13 01:23:58;;;;;;;2.27;1.40;;;;;21.40;98628.00;;;;2083115;28;20223;-69
2023/12/13 01:24:59;;;;;;;1.98;1.00;;;;;21.40;98631.00;;;;2062287;28;20218;-69
2023/12/13 01:25:59;;;;;;;3.73;1.77;;;;;21.40;98630.00;;;;2079478;28;20599;-69
2023/12/13 01:26:59;;;;;;;3.90;1.30;;;;;21.40;98632.00;;;;2079793;28;20566;-69
2023/12/13 01:28:00;;;;;;;3.27;1.43;;;;;21.40;98628.00;;;;2077851;28;20719;-69
2023/12/13 01:29:00;;;;;;;2.70;1.47;;;;;21.40;98631.00;;;;2078245;28;20484;-69
2023/12/13 01:30:00;;;;;;;2.30;1.50;;;;;21.40;98630.00;;;;2071358;28;20217;-69
2023/12/13 01:31:06;;;;;;;5.50;1.37;;;;;21.40;98630.00;;;;2085427;28;20229;-69
2023/12/13 01:32:06;;;;;;;1.95;1.15;;;;;21.40;98631.00;;;;2081298;28;20213;-69
2023/12/13 01:33:06;;;;;;;2.97;1.47;;;;;21.40;98626.00;;;;2078586;28;20210;-69
2023/12/13 01:34:07;;;;;;;2.73;1.00;;;;;21.40;98627.00;;;;2079339;28;20549;-69
2023/12/13 01:35:07;;;;;;;3.10;1.40;;;;;21.40;98627.00;;;;2069882;28;20231;-69
2023/12/13 01:36:08;;;;;;;2.80;1.40;;;;;21.40;98622.00;;;;2077048;28;20205;-69
2023/12/13 01:37:08;;;;;;;5.53;1.20;;;;;21.40;98641.00;;;;2079755;28;20740;-69
2023/12/13 01:38:09;;;;;;;3.57;1.10;;;;;21.40;98628.00;;;;2078844;28;20210;-69
2023/12/13 01:39:09;;;;;;;2.77;1.30;;;;;21.40;98634.00;;;;2079627;28;20271;-69
2023/12/13 01:40:09;;;;;;;2.47;1.10;;;;;21.40;98631.00;;;;2067235;28;20244;-69
2023/12/13 01:41:10;;;;;;;2.30;0.90;;;;;21.40;98633.00;;;;2075229;28;20209;-69
2023/12/13 01:42:10;;;;;;;2.57;1.47;;;;;21.40;98634.00;;;;2075380;28;20206;-69
2023/12/13 01:43:20;;;;;;;2.07;1.20;;;;;21.40;98632.00;;;;2079432;28;20201;-69
2023/12/13 01:44:20;;;;;;;3.38;1.23;;;;;21.30;98636.00;;;;2077737;28;20209;-69
2023/12/13 01:45:21;;;;;;;2.30;1.23;;;;;21.40;98635.00;;;;2064745;28;20218;-69
2023/12/13 01:46:21;;;;;;;2.47;1.20;;;;;21.40;98639.00;;;;2078317;28;20209;-69
2023/12/13 01:47:22;;;;;;;3.13;1.33;;;;;21.40;98635.00;;;;2077083;28;20897;-69
2023/12/13 01:48:23;;;;;;;3.87;1.03;;;;;21.30;98637.00;;;;2078958;28;20221;-69
2023/12/13 01:49:23;;;;;;;2.78;0.98;;;;;21.40;98630.00;;;;2079205;28;20229;-69
2023/12/13 01:50:24;;;;;;;2.13;1.20;;;;;21.40;98641.00;;;;2065698;28;20296;-69
2023/12/13 01:51:24;;;;;;;2.00;1.20;;;;;21.40;98640.00;;;;2079575;28;20217;-69
2023/12/13 01:52:25;;;;;;;3.17;0.93;;;;;21.30;98641.00;;;;2079143;28;20490;-69
2023/12/13 01:53:25;;;;;;;3.23;1.60;;;;;21.30;98633.00;;;;2077337;28;20214;-69
2023/12/13 01:54:25;;;;;;;2.43;1.03;;;;;21.40;98638.00;;;;2078098;28;20244;-69
2023/12/13 01:55:26;;;;;;;2.33;1.03;;;;;21.30;98634.00;;;;2070890;28;20262;-69
2023/12/13 01:56:26;;;;;;;2.40;1.23;;;;;21.30;98635.00;;;;2079156;28;20221;-69
2023/12/13 01:57:26;;;;;;;1.83;1.07;;;;;21.30;98636.00;;;;2078493;28;20225;-69
2023/12/13 01:58:27;;;;;;;1.73;0.90;;;;;21.30;98640.00;;;;2079699;28;20221;-69
2023/12/13 01:59:28;;;;;;;1.70;0.90;;;;;21.30;98637.00;;;;2078163;28;20794;-69
2023/12/13 02:00:29;;;;;;;2.07;1.13;;;;;21.30;98635.00;;;;2062287;28;20301;-69
2023/12/13 02:01:29;;;;;;;2.53;0.90;;;;;21.30;98606.00;;;;2070004;28;20562;-69
2023/12/13 02:02:29;;;;;;;1.90;0.90;;;;;21.30;98631.00;;;;2061351;28;21005;-69
2023/12/13 02:03:30;;;;;;;1.90;1.00;;;;;21.30;98632.00;;;;2070873;28;20226;-69
2023/12/13 02:04:30;;;;;;;1.80;0.90;;;;;21.30;98624.00;;;;2076174;28;20218;-69
2023/12/13 02:05:30;;;;;;;3.37;1.10;;;;;21.30;98632.00;;;;2068641;28;20206;-69
2023/12/13 02:06:31;;;;;;;3.43;1.00;;;;;21.30;98623.00;;;;2078660;28;20260;-69
2023/12/13 02:07:31;;;;;;;1.70;0.90;;;;;21.30;98618.00;;;;2078919;28;20248;-69
2023/12/13 02:08:31;;;;;;;2.67;1.03;;;;;21.30;98618.00;;;;2078797;28;20213;-69
2023/12/13 02:09:32;;;;;;;2.67;0.90;;;;;21.30;98625.00;;;;2069954;28;20230;-69
2023/12/13 02:10:32;;;;;;;2.30;0.97;;;;;21.30;98622.00;;;;2069360;28;20225;-69
2023/12/13 02:11:32;;;;;;;2.13;1.00;;;;;21.30;98623.00;;;;2079104;28;20221;-69
2023/12/13 02:12:33;;;;;;;2.17;0.80;;;;;21.30;98619.00;;;;2083101;28;20245;-69
2023/12/13 02:13:33;;;;;;;2.00;1.17;;;;;21.30;98623.00;;;;2074906;28;20228;-69
2023/12/13 02:14:33;;;;;;;1.80;0.90;;;;;21.30;98614.00;;;;2077308;28;20213;-69
2023/12/13 02:15:35;;;;;;;1.80;1.00;;;;;21.30;98621.00;;;;2061135;28;20218;-69
2023/12/13 02:16:37;;;;;;;2.13;0.90;;;;;21.30;98621.00;;;;2070514;28;20218;-69
2023/12/13 02:17:47;;;;;;;2.30;1.20;;;;;21.30;98617.00;;;;2078103;28;20740;-69
2023/12/13 02:18:47;;;;;;;1.50;0.70;;;;;21.30;98623.00;;;;2078345;28;20216;-69
2023/12/13 02:19:47;;;;;;;2.20;1.00;;;;;21.30;98626.00;;;;2076100;28;20233;-69
2023/12/13 02:20:52;;;;;;;2.77;0.80;;;;;21.30;98633.00;;;;2073937;28;20300;-69
2023/12/13 02:21:52;;;;;;;2.15;1.00;;;;;21.30;98631.00;;;;2077891;28;20233;-69
2023/12/13 02:22:52;;;;;;;3.40;0.97;;;;;21.30;98629.00;;;;2079979;28;20878;-69
2023/12/13 02:23:53;;;;;;;1.83;0.90;;;;;21.30;98621.00;;;;2079386;28;20237;-69
2023/12/13 02:24:54;;;;;;;1.80;0.88;;;;;21.30;98630.00;;;;2071768;28;20210;-67
2023/12/13 02:26:05;;;;;;;2.00;0.83;;;;;21.20;98624.00;;;;2077771;28;20670;-67
2023/12/13 02:27:06;;;;;;;2.42;1.00;;;;;21.30;98635.00;;;;2072772;28;20237;-67
2023/12/13 02:28:06;;;;;;;2.08;1.00;;;;;21.20;98578.00;;;;2064437;28;20706;-67
2023/12/13 02:29:07;;;;;;;1.90;0.90;;;;;21.20;98622.00;;;;2055832;28;20246;-67
2023/12/13 02:30:09;;;;;;;3.30;0.90;;;;;21.20;98616.00;;;;2062326;28;20637;-67
2023/12/13 02:31:09;;;;;;;2.63;1.00;;;;;21.20;98628.00;;;;2088129;28;20459;-67
2023/12/13 02:32:10;;;;;;;2.70;1.00;;;;;21.20;98626.00;;;;2069822;28;20611;-67
2023/12/13 02:33:10;;;;;;;2.03;1.10;;;;;21.20;98614.00;;;;2070548;28;20236;-67
2023/12/13 02:34:10;;;;;;;2.00;0.90;;;;;21.20;98624.00;;;;2081120;28;20210;-67
2023/12/13 02:35:11;;;;;;;2.87;1.00;;;;;21.20;98628.00;;;;2073870;28;20252;-67
2023/12/13 02:36:11;;;;;;;2.10;0.90;;;;;21.20;98627.00;;;;2088725;28;20262;-67
2023/12/13 02:37:11;;;;;;;2.43;0.77;;;;;21.20;98624.00;;;;2085020;28;20209;-67
2023/12/13 02:38:12;;;;;;;2.07;1.00;;;;;21.20;98624.00;;;;2076809;28;20271;-67
2023/12/13 02:39:12;;;;;;;1.60;1.00;;;;;21.20;98621.00;;;;2081062;28;20213;-67
2023/12/13 02:40:14;;;;;;;1.60;0.87;;;;;21.20;98619.00;;;;2070000;28;20225;-67
2023/12/13 02:41:14;;;;;;;2.58;1.02;;;;;21.20;98613.00;;;;2075246;28;20463;-67
2023/12/13 02:42:14;;;;;;;2.30;0.70;;;;;21.20;98622.00;;;;2080404;28;20217;-67
2023/12/13 02:43:15;;;;;;;2.37;1.27;;;;;21.20;98622.00;;;;2080642;28;20219;-67
2023/12/13 02:44:15;;;;;;;2.00;1.00;;;;;21.20;98612.00;;;;2079030;28;20627;-67
2023/12/13 02:45:16;;;;;;;1.70;0.77;;;;;21.20;98615.00;;;;2071572;28;20628;-67
2023/12/13 02:46:16;;;;;;;2.30;1.00;;;;;21.20;98615.00;;;;2078976;28;20323;-67
2023/12/13 02:47:16;;;;;;;1.90;0.90;;;;;21.20;98614.00;;;;2079808;28;20209;-67
2023/12/13 02:48:17;;;;;;;2.33;1.00;;;;;21.20;98611.00;;;;2080281;28;20247;-67
2023/12/13 02:49:17;;;;;;;1.30;0.63;;;;;21.20;98614.00;;;;2080403;28;20588;-67
2023/12/13 02:50:17;;;;;;;2.40;0.80;;;;;21.20;98609.00;;;;2074871;28;20232;-67
2023/12/13 02:51:18;;;;;;;1.73;0.70;;;;;21.20;98604.00;;;;2086114;28;20599;-67
2023/12/13 02:52:18;;;;;;;1.80;1.00;;;;;21.20;98609.00;;;;2082469;28;20790;-67
2023/12/13 02:53:19;;;;;;;1.70;0.70;;;;;21.20;98609.00;;;;2081102;28;20222;-67
2023/12/13 02:54:20;;;;;;;1.70;0.60;;;;;21.20;98602.00;;;;2080376;28;20588;-67
2023/12/13 02:55:20;;;;;;;1.77;0.80;;;;;21.10;98606.00;;;;2070514;28;20611;-67
2023/12/13 02:56:20;;;;;;;2.50;0.97;;;;;21.20;98596.00;;;;2078339;28;20622;-67
2023/12/13 02:57:20;;;;;;;1.97;0.90;;;;;21.20;98595.00;;;;2080715;28;20697;-67
2023/12/13 02:58:21;;;;;;;2.17;0.90;;;;;21.20;98596.00;;;;2078023;28;20743;-67
2023/12/13 02:59:22;;;;;;;2.03;1.00;;;;;21.10;98590.00;;;;2082538;28;20212;-67
2023/12/13 03:00:22;;;;;;;1.47;0.90;;;;;21.20;98593.00;;;;2070418;28;20471;-67
2023/12/13 03:01:22;;;;;;;3.90;1.13;;;;;21.20;98591.00;;;;2080572;28;20209;-67
2023/12/13 03:02:23;;;;;;;3.27;0.93;;;;;21.20;98588.00;;;;2080875;28;20219;-67
2023/12/13 03:03:24;;;;;;;1.63;0.77;;;;;21.20;98586.00;;;;2080084;28;20217;-67
2023/12/13 03:04:24;;;;;;;1.85;0.80;;;;;21.20;98589.00;;;;2080957;28;20209;-67
2023/12/13 03:05:24;;;;;;;1.70;1.00;;;;;21.20;98583.00;;;;2071386;28;20252;-67
2023/12/13 03:06:25;;;;;;;2.30;0.90;;;;;21.20;98588.00;;;;2080853;28;20217;-67
2023/12/13 03:07:25;;;;;;;3.10;1.00;;;;;21.20;98596.00;;;;2079423;28;20232;-67
2023/12/13 03:08:25;;;;;;;1.80;0.80;;;;;21.10;98591.00;;;;2079704;28;20549;-67
2023/12/13 03:09:26;;;;;;;2.93;0.90;;;;;21.20;98579.00;;;;2080159;28;20618;-67
2023/12/13 03:10:27;;;;;;;1.77;0.80;;;;;21.20;98586.00;;;;2070824;28;20230;-67
2023/12/13 03:11:28;;;;;;;2.33;0.90;;;;;21.20;98587.00;;;;2080961;28;20735;-67
2023/12/13 03:12:28;;;;;;;1.20;0.70;;;;;21.20;98582.00;;;;2080335;28;20217;-67
2023/12/13 03:13:28;;;;;;;1.70;0.80;;;;;21.10;98583.00;;;;2079350;28;20213;-67
2023/12/13 03:14:29;;;;;;;1.93;0.80;;;;;21.10;98589.00;;;;2079152;28;20272;-67
2023/12/13 03:15:29;;;;;;;2.40;0.70;;;;;21.10;98585.00;;;;2070636;28;20221;-67
2023/12/13 03:16:29;;;;;;;1.70;0.80;;;;;21.10;98579.00;;;;2079327;28;20229;-67
2023/12/13 03:17:30;;;;;;;2.53;0.80;;;;;21.10;98583.00;;;;2078317;28;20661;-67
2023/12/13 03:18:30;;;;;;;1.40;0.80;;;;;21.10;98582.00;;;;2080583;28;20545;-67
2023/12/13 03:19:30;;;;;;;1.90;0.87;;;;;21.10;98576.00;;;;2080410;28;20708;-67
2023/12/13 03:20:31;;;;;;;3.40;1.00;;;;;21.10;98580.00;;;;2068995;28;20221;-67
2023/12/13 03:21:31;;;;;;;2.20;0.83;;;;;21.10;98574.00;;;;2080850;28;20244;-67
2023/12/13 03:22:31;;;;;;;2.60;1.10;;;;;21.10;98567.00;;;;2080463;28;20224;-67
2023/12/13 03:23:32;;;;;;;2.30;0.90;;;;;21.10;98578.00;;;;2080861;28;20253;-67
2023/12/13 03:24:32;;;;;;;2.47;0.80;;;;;21.10;98577.00;;;;2080299;28;20268;-67
2023/12/13 03:25:33;;;;;;;1.77;0.80;;;;;21.10;98573.00;;;;2068353;28;20232;-67
2023/12/13 03:26:33;;;;;;;1.70;0.80;;;;;21.10;98579.00;;;;2079577;28;20296;-67
2023/12/13 03:27:33;;;;;;;4.80;1.43;;;;;21.10;98569.00;;;;2079732;28;20233;-67
2023/12/13 03:28:35;;;;;;;1.20;0.60;;;;;21.10;98572.00;;;;2080082;28;20225;-67
2023/12/13 03:29:36;;;;;;;2.30;0.80;;;;;21.10;98577.00;;;;2080269;28;20244;-67
2023/12/13 03:30:36;;;;;;;2.13;1.00;;;;;21.10;98547.00;;;;2069299;28;20225;-67
2023/12/13 03:31:36;;;;;;;1.80;0.90;;;;;21.10;98570.00;;;;2080476;28;20272;-67
2023/12/13 03:32:37;;;;;;;2.43;1.30;;;;;21.10;98568.00;;;;2079153;28;20669;-67
2023/12/13 03:33:38;;;;;;;2.67;0.80;;;;;21.10;98572.00;;;;2076621;28;20659;-67
2023/12/13 03:34:38;;;;;;;2.00;0.90;;;;;21.10;98575.00;;;;2080327;28;20456;-67
2023/12/13 03:35:38;;;;;;;2.20;0.63;;;;;21.10;98566.00;;;;2071160;28;20213;-67
2023/12/13 03:36:39;;;;;;;2.30;1.00;;;;;21.10;98570.00;;;;2077707;28;20318;-67
2023/12/13 03:37:39;;;;;;;3.10;0.70;;;;;21.10;98564.00;;;;2080490;28;20859;-67
2023/12/13 03:38:39;;;;;;;1.20;0.53;;;;;21.10;98558.00;;;;2079858;28;20221;-67
2023/12/13 03:39:40;;;;;;;1.53;0.67;;;;;21.10;98569.00;;;;2080887;28;20214;-67
2023/12/13 03:40:40;;;;;;;3.03;1.00;;;;;21.10;98556.00;;;;2067837;28;20632;-67
2023/12/13 03:41:40;;;;;;;1.90;0.80;;;;;21.10;98556.00;;;;2079016;28;20850;-67
2023/12/13 03:42:41;;;;;;;2.13;0.90;;;;;21.10;98560.00;;;;2080491;28;20216;-67
2023/12/13 03:43:41;;;;;;;3.70;0.80;;;;;21.10;98558.00;;;;2079368;28;20257;-67
2023/12/13 03:44:41;;;;;;;1.40;0.80;;;;;21.00;98564.00;;;;2080217;28;20236;-67
2023/12/13 03:45:42;;;;;;;1.63;0.60;;;;;21.10;98557.00;;;;2070741;28;20213;-67
2023/12/13 03:46:42;;;;;;;1.50;0.73;;;;;21.00;98564.00;;;;2080135;28;20689;-67
2023/12/13 03:47:43;;;;;;;5.23;1.00;;;;;21.10;98563.00;;;;2080479;28;20742;-67
2023/12/13 03:48:43;;;;;;;1.77;0.67;;;;;21.10;98565.00;;;;2079127;28;20221;-67
2023/12/13 03:49:43;;;;;;;1.90;0.70;;;;;21.10;98558.00;;;;2080720;28;20691;-67
2023/12/13 03:50:44;;;;;;;2.30;0.90;;;;;21.10;98562.00;;;;2069329;28;20697;-67
2023/12/13 03:51:46;;;;;;;3.03;0.67;;;;;21.10;98571.00;;;;2080663;28;20247;-67
2023/12/13 03:52:46;;;;;;;2.92;0.90;;;;;21.10;98564.00;;;;2077330;28;20229;-67
2023/12/13 03:53:46;;;;;;;2.53;1.17;;;;;21.00;98564.00;;;;2078847;28;20268;-67
2023/12/13 03:54:47;;;;;;;2.60;0.70;;;;;21.10;98554.00;;;;2080189;28;20582;-67
2023/12/13 03:55:47;;;;;;;1.60;0.60;;;;;21.10;98561.00;;;;2068622;28;20669;-67
2023/12/13 03:56:47;;;;;;;2.00;0.80;;;;;21.00;98557.00;;;;2080208;28;20677;-67
2023/12/13 03:57:48;;;;;;;1.70;0.77;;;;;21.00;98558.00;;;;2078662;28;20222;-67
2023/12/13 03:58:48;;;;;;;2.37;0.80;;;;;21.00;98554.00;;;;2080336;28;20220;-67
2023/12/13 03:59:48;;;;;;;1.47;0.70;;;;;21.00;98550.00;;;;2074077;28;20217;-67
2023/12/13 04:00:49;;;;;;;3.00;0.67;;;;;21.00;98557.00;;;;2076377;28;20225;-67
2023/12/13 04:01:49;;;;;;;3.03;1.00;;;;;21.00;98552.00;;;;2078850;28;20344;-67
2023/12/13 04:02:50;;;;;;;1.60;0.73;;;;;21.00;98556.00;;;;2079165;28;20448;-67
2023/12/13 04:03:50;;;;;;;1.83;0.53;;;;;21.00;98555.00;;;;2078788;28;20295;-67
2023/12/13 04:04:51;;;;;;;3.13;0.80;;;;;21.00;98547.00;;;;2070262;28;20202;-67
2023/12/13 04:05:51;;;;;;;2.60;0.80;;;;;21.00;98551.00;;;;2078993;28;20217;-67
2023/12/13 04:06:52;;;;;;;2.20;0.80;;;;;21.00;98551.00;;;;2079951;28;21003;-67
2023/12/13 04:07:52;;;;;;;2.60;0.87;;;;;21.00;98556.00;;;;2079938;28;20586;-67
2023/12/13 04:08:52;;;;;;;2.23;0.80;;;;;21.00;98555.00;;;;2080401;28;20237;-67
2023/12/13 04:09:53;;;;;;;2.10;0.60;;;;;21.00;98558.00;;;;2070402;28;20225;-67
2023/12/13 04:10:53;;;;;;;2.07;0.60;;;;;21.00;98552.00;;;;2080062;28;20214;-67
2023/12/13 04:11:53;;;;;;;2.33;0.70;;;;;21.00;98554.00;;;;2078376;28;20219;-67
2023/12/13 04:12:54;;;;;;;1.70;0.60;;;;;21.00;98556.00;;;;2079169;28;20230;-67
2023/12/13 04:13:54;;;;;;;3.30;1.00;;;;;21.00;98555.00;;;;2076482;28;20274;-67
2023/12/13 04:14:55;;;;;;;3.63;0.87;;;;;21.00;98550.00;;;;2069858;28;20268;-67
2023/12/13 04:15:55;;;;;;;2.83;0.80;;;;;21.00;98553.00;;;;2080609;28;20214;-67
2023/12/13 04:16:56;;;;;;;2.57;0.70;;;;;21.00;98552.00;;;;2079415;28;20210;-67
2023/12/13 04:17:56;;;;;;;2.80;0.80;;;;;21.00;98546.00;;;;2080495;28;20678;-67
2023/12/13 04:18:56;;;;;;;4.80;1.00;;;;;21.00;98554.00;;;;2080894;28;20969;-67
2023/12/13 04:19:58;;;;;;;2.50;0.70;;;;;21.00;98557.00;;;;2072364;28;20210;-67
2023/12/13 04:20:58;;;;;;;2.05;0.70;;;;;21.00;98560.00;;;;2079738;28;20217;-67
2023/12/13 04:21:59;;;;;;;4.67;1.20;;;;;21.00;98552.00;;;;2080187;28;20213;-67
2023/12/13 04:22:59;;;;;;;2.13;0.70;;;;;21.00;98551.00;;;;2080170;28;20228;-66
2023/12/13 04:24:00;;;;;;;3.43;0.70;;;;;21.00;98549.00;;;;2078956;28;20233;-66
2023/12/13 04:25:00;;;;;;;7.77;0.90;;;;;21.00;98551.00;;;;2072087;28;20212;-66
2023/12/13 04:26:01;;;;;;;6.20;1.00;;;;;21.00;98548.00;;;;2087662;28;20512;-66
2023/12/13 04:27:02;;;;;;;4.67;1.00;;;;;21.00;98547.00;;;;2079856;28;20336;-66
2023/12/13 04:28:02;;;;;;;1.97;0.87;;;;;21.00;98544.00;;;;2078830;28;20578;-66
2023/12/13 04:29:03;;;;;;;2.30;0.73;;;;;21.00;98555.00;;;;2078589;28;20878;-66
2023/12/13 04:30:04;;;;;;;3.57;0.80;;;;;21.00;98549.00;;;;2070703;28;20249;-66
2023/12/13 04:31:05;;;;;;;3.20;0.77;;;;;21.00;98547.00;;;;2081432;28;20467;-66
2023/12/13 04:32:05;;;;;;;1.87;0.73;;;;;21.00;98550.00;;;;2081799;28;20456;-66
2023/12/13 04:33:05;;;;;;;7.33;1.00;;;;;21.00;98547.00;;;;2077911;28;20221;-66
2023/12/13 04:34:06;;;;;;;4.13;0.97;;;;;21.00;98550.00;;;;2080309;28;20210;-66
2023/12/13 04:35:09;;;;;;;2.70;0.87;;;;;21.00;98549.00;;;;2069883;28;20229;-66
2023/12/13 04:36:09;;;;;;;3.10;0.93;;;;;21.00;98543.00;;;;2078966;28;20229;-66
2023/12/13 04:37:10;;;;;;;3.10;1.17;;;;;21.00;98550.00;;;;2080214;28;20300;-66
2023/12/13 04:38:10;;;;;;;3.10;0.80;;;;;21.00;98553.00;;;;2079832;28;20221;-66
2023/12/13 04:39:11;;;;;;;1.80;0.67;;;;;21.00;98556.00;;;;2076650;28;20227;-66
2023/12/13 04:40:11;;;;;;;5.13;0.70;;;;;21.00;98548.00;;;;2076477;28;20560;-66
2023/12/13 04:41:11;;;;;;;2.77;0.70;;;;;21.00;98550.00;;;;2079629;28;20275;-66
2023/12/13 04:42:12;;;;;;;2.00;0.80;;;;;21.00;98554.00;;;;2079955;28;20232;-66
2023/12/13 04:43:12;;;;;;;2.17;0.80;;;;;21.00;98542.00;;;;2081881;28;20217;-66
2023/12/13 04:44:12;;;;;;;3.53;1.07;;;;;21.00;98547.00;;;;2070410;28;20236;-66
2023/12/13 04:45:13;;;;;;;2.50;1.00;;;;;21.00;98545.00;;;;2071564;28;20244;-66
2023/12/13 04:46:13;;;;;;;2.13;0.97;;;;;21.00;98545.00;;;;2085602;28;20335;-66
2023/12/13 04:47:13;;;;;;;3.83;0.70;;;;;21.00;98549.00;;;;2084078;28;20228;-68
2023/12/13 04:48:14;;;;;;;2.17;0.77;;;;;21.00;98553.00;;;;2078530;28;20213;-70
2023/12/13 04:49:14;;;;;;;4.80;0.80;;;;;21.00;98551.00;;;;2080007;28;20214;-69
2023/12/13 04:50:14;;;;;;;1.97;0.80;;;;;21.00;98545.00;;;;2069972;28;20730;-67
2023/12/13 04:51:15;;;;;;;2.57;0.97;;;;;21.00;98552.00;;;;2080284;28;20221;-66
2023/12/13 04:52:15;;;;;;;6.50;1.20;;;;;21.00;98553.00;;;;2076279;28;20247;-66
2023/12/13 04:53:15;;;;;;;6.27;1.10;;;;;21.00;98555.00;;;;2075500;28;20214;-67
2023/12/13 04:54:16;;;;;;;8.07;1.23;;;;;21.00;98551.00;;;;2078607;28;20214;-67
2023/12/13 04:55:16;;;;;;;15.90;1.40;;;;;21.00;98547.00;;;;2070638;28;20732;-67
2023/12/13 04:56:16;;;;;;;6.00;1.10;;;;;21.00;98557.00;;;;2080155;28;20216;-67
2023/12/13 04:57:18;;;;;;;3.88;0.75;;;;;21.00;98550.00;;;;2079517;28;20255;-68
2023/12/13 04:58:19;;;;;;;4.88;0.80;;;;;21.00;98558.00;;;;2071822;28;20222;-68
2023/12/13 04:59:19;;;;;;;5.83;0.80;;;;;21.00;98555.00;;;;2076282;28;20569;-68
2023/12/13 05:00:20;;;;;;;3.87;0.80;;;;;21.00;98551.00;;;;2069675;28;20224;-67
2023/12/13 05:01:20;;;;;;;4.53;0.80;;;;;21.00;98550.00;;;;2079892;28;20692;-67
2023/12/13 05:02:20;;;;;;;3.93;0.77;;;;;21.00;98556.00;;;;2081597;28;20697;-67
2023/12/13 05:03:21;;;;;;;5.87;2.03;;;;;21.00;98554.00;;;;2078062;28;20712;-67